Hartford, CT

12:49 AM EDT on April 01, 2015 (GMT -0400)
Windham | | Change Station
CLOSE
Current Station
Airport
Location: Willimantic,
Elevation: 246 ft
Nearby Weather Stations
Active Advisory: Special Statement

Elev 246 ft 41.74 °N, 72.18 °W | Updated 57 minutes ago

Mostly Cloudy
Mostly Cloudy
34 °F
Feels Like 31 °F
N
4
Wind Variable Wind from North

Today
High -- | Low -- °F
--% Chance of Precip.
Yesterday
High -- | Low -- °F
Precip. -- in
6:33 AM 7:15 PM
Waxing Gibbous, 90% visible
Pressure 29.78 in
Visibility 7.0 miles
Clouds Overcast 400 ft
Windchill 31 °F
Dew Point 32 °F
Humidity 92%
Rainfall 0.01 in
Snow Depth Not available.
UV 0 out of 12
Pollen 8.00 out of 12
Air Quality Not available.
Flu Activity Not available.
METAR KIJD 010352Z AUTO 01003KT 7SM OVC004 01/00 A2978 RMK AO2 SLP085 T00110000

More Conditions Fewer Conditions

Pressure 29.78 in
Visibility 7.0 miles
Clouds Overcast 400 ft
Windchill 31 °F
Dew Point 32 °F
Humidity 92%
Rainfall 0.01 in
Snow Depth Not available.
UV 0 out of 12
Pollen 8.00 out of 12
Air Quality Not available.
Flu Activity Not available.
METAR KIJD 010352Z AUTO 01003KT 7SM OVC004 01/00 A2978 RMK AO2 SLP085 T00110000

More Conditions Fewer Conditions

10-Day Weather Forecast

Almanac

Astronomy

Apr. 01, 2015 Rise Set
Actual Time
Civil Twilight
Nautical Twilight
Astronomical Twilight
Moon
Length of Visible Light
Length of Day
Tomorrow will be .
, % of the Moon is Illuminated

Today's Extremes

State Highs State Lows

Community

WunderPhotos

Upload Photos

1,809,919 photos uploaded!

WunderBlogs® & News

Nearby

Air Quality

  Air Quality AQ Index Pollutant
Not available.

Snow Depth

Station Depth Elevation

Earthquake Activity

City Distance Mag. Time & Date
Minimum magnitude displayed is 2.5.

Coastal Water Temperatures

Place Temperature

Stations

Nearby Weather Stations

Station Location Temp. Windchill Dew Point Humidity Wind Precip. Elev Updated Type
                   
Special Statement
Statement as of 12:07 AM EDT on April 01, 2015

... Areas of black ice possible this morning...

Light rainfall last evening and temperatures dropping near to
below freezing may lead to a few areas of black ice on area
roadways this morning.

Motorists are urged to use caution through the morning commute.